createdAt,value
2022-11-22T00:01:34.161Z,18.27
2022-11-22T00:04:03.278Z,17.00
2022-11-22T00:06:32.005Z,17.90
2022-11-22T00:09:01.045Z,15.97
2022-11-22T00:11:30.046Z,18.77
2022-11-22T00:13:59.013Z,18.17
2022-11-22T00:16:27.404Z,17.80
2022-11-22T00:18:57.696Z,17.30
2022-11-22T00:21:26.301Z,19.90
2022-11-22T00:23:57.592Z,16.90
2022-11-22T00:26:26.516Z,19.90
2022-11-22T00:28:55.524Z,18.30
2022-11-22T00:31:24.374Z,14.83
2022-11-22T00:33:53.340Z,17.67
2022-11-22T00:36:24.085Z,17.50
2022-11-22T00:38:53.643Z,18.10
2022-11-22T00:41:22.499Z,19.03
2022-11-22T00:43:51.047Z,18.23
2022-11-22T00:46:19.984Z,16.93
2022-11-22T00:48:48.735Z,19.47
2022-11-22T00:51:17.707Z,21.43
2022-11-22T00:53:48.055Z,19.13
2022-11-22T00:56:16.757Z,18.47
2022-11-22T00:58:45.816Z,17.00
2022-11-22T01:01:14.526Z,20.07
2022-11-22T01:03:43.867Z,18.23
2022-11-22T01:06:12.554Z,21.43
2022-11-22T01:08:41.340Z,18.77
2022-11-22T01:11:12.514Z,20.20
2022-11-22T01:13:41.215Z,20.97
2022-11-22T01:16:11.962Z,20.00
2022-11-22T01:18:41.300Z,19.90
2022-11-22T01:21:10.808Z,22.90
2022-11-22T01:23:39.872Z,20.83
2022-11-22T01:26:10.287Z,20.77
2022-11-22T01:28:39.317Z,21.93
2022-11-22T01:31:08.106Z,20.43
2022-11-22T01:33:37.455Z,19.83
2022-11-22T01:36:06.905Z,20.53
2022-11-22T01:38:35.479Z,21.10
2022-11-22T01:41:04.413Z,20.40
2022-11-22T01:43:34.951Z,19.50
2022-11-22T01:46:04.847Z,22.50
2022-11-22T01:48:39.213Z,22.83
2022-11-22T01:51:14.369Z,17.03
2022-11-22T01:53:43.565Z,17.43
2022-11-22T01:56:16.512Z,14.83
2022-11-22T01:58:50.455Z,16.13
2022-11-22T02:01:20.395Z,16.17
2022-11-22T02:03:51.474Z,17.20
2022-11-22T02:06:22.851Z,18.63
2022-11-22T02:08:58.289Z,17.87
2022-11-22T02:11:33.899Z,19.63
2022-11-22T02:14:05.911Z,17.10
2022-11-22T02:16:36.644Z,17.37
2022-11-22T02:19:06.924Z,19.03
2022-11-22T02:21:35.461Z,17.80
2022-11-22T02:24:09.340Z,17.97
2022-11-22T02:26:39.927Z,16.47
2022-11-22T02:29:09.557Z,19.77
2022-11-22T02:31:42.573Z,20.33
2022-11-22T02:34:12.280Z,18.20
2022-11-22T02:36:44.759Z,21.13
2022-11-22T02:39:15.717Z,20.37
2022-11-22T02:41:46.412Z,16.63
2022-11-22T02:44:15.714Z,21.23
2022-11-22T02:46:51.921Z,18.10
2022-11-22T02:49:21.827Z,20.97
2022-11-22T02:51:51.451Z,19.47
2022-11-22T02:54:21.606Z,21.67
2022-11-22T02:56:52.229Z,18.60
2022-11-22T02:59:21.359Z,18.83
2022-11-22T03:01:50.809Z,21.07
2022-11-22T03:04:25.775Z,21.67
2022-11-22T03:06:55.923Z,22.27
2022-11-22T03:09:25.586Z,23.60
2022-11-22T03:11:56.114Z,20.80
2022-11-22T03:14:24.983Z,24.37
2022-11-22T03:16:53.836Z,19.90
2022-11-22T03:19:22.854Z,25.13
2022-11-22T03:21:51.782Z,22.90
2022-11-22T03:24:22.006Z,25.20
2022-11-22T03:26:51.281Z,24.43
2022-11-22T03:29:21.600Z,26.03
2022-11-22T03:31:50.444Z,24.53
2022-11-22T03:34:19.289Z,21.07
2022-11-22T03:36:48.283Z,24.93
2022-11-22T03:39:17.074Z,23.90
2022-11-22T03:41:45.750Z,22.83
2022-11-22T03:44:14.872Z,23.80
2022-11-22T03:46:45.290Z,27.53
2022-11-22T03:49:14.124Z,26.53
2022-11-22T03:51:43.318Z,26.40
2022-11-22T03:54:11.979Z,22.60
2022-11-22T03:56:40.982Z,23.67
2022-11-22T03:59:09.550Z,23.00
2022-11-22T04:01:38.349Z,25.10
2022-11-22T04:04:08.820Z,24.03
2022-11-22T04:06:38.613Z,23.87
2022-11-22T04:09:08.166Z,21.20
2022-11-22T04:11:36.706Z,22.17
2022-11-22T04:14:23.204Z,21.00
2022-11-22T04:16:52.438Z,23.10
2022-11-22T04:19:22.981Z,24.13
2022-11-22T04:21:50.707Z,22.90
2022-11-22T04:24:36.897Z,26.63
2022-11-22T04:27:05.792Z,20.03
2022-11-22T04:29:34.518Z,28.53
2022-11-22T04:32:21.371Z,26.23
2022-11-22T04:34:51.599Z,25.23
2022-11-22T04:37:20.234Z,25.63
2022-11-22T04:39:49.692Z,28.83
2022-11-22T04:42:37.037Z,23.57
2022-11-22T04:45:08.996Z,24.53
2022-11-22T04:47:56.257Z,24.80
2022-11-22T04:50:46.274Z,22.40
2022-11-22T04:53:15.683Z,24.10
2022-11-22T04:55:46.929Z,24.70
2022-11-22T04:58:16.019Z,25.40
2022-11-22T05:00:45.267Z,24.70
2022-11-22T05:03:14.815Z,24.43
2022-11-22T05:05:45.737Z,22.07
2022-11-22T05:08:15.061Z,27.23
2022-11-22T05:10:59.602Z,25.87
2022-11-22T05:13:30.925Z,22.37
2022-11-22T05:16:00.461Z,26.47
2022-11-22T05:18:30.549Z,26.70
2022-11-22T05:21:03.812Z,26.33
2022-11-22T05:23:50.259Z,24.20
2022-11-22T05:26:19.083Z,23.77
2022-11-22T05:28:47.940Z,25.03
2022-11-22T05:31:18.289Z,24.70
2022-11-22T05:33:47.688Z,29.07
2022-11-22T05:36:18.141Z,27.97
2022-11-22T05:38:47.087Z,25.73
2022-11-22T05:41:16.382Z,26.23
2022-11-22T05:43:45.667Z,25.57
2022-11-22T05:46:21.014Z,28.17
2022-11-22T05:48:53.158Z,25.30
2022-11-22T05:51:29.084Z,24.67
2022-11-22T05:54:01.320Z,26.30
2022-11-22T05:56:30.187Z,22.03
2022-11-22T05:58:58.822Z,24.43
2022-11-22T06:01:27.775Z,24.73
2022-11-22T06:03:56.758Z,23.00
2022-11-22T06:06:27.112Z,25.27
2022-11-22T06:08:55.848Z,25.27
2022-11-22T06:11:26.188Z,32.33
2022-11-22T06:13:56.837Z,28.07
2022-11-22T06:16:26.580Z,32.27
2022-11-22T06:18:55.816Z,30.57
2022-11-22T06:21:28.736Z,29.77
2022-11-22T06:23:58.087Z,27.87
2022-11-22T06:26:27.712Z,25.73
2022-11-22T06:28:56.545Z,28.27
2022-11-22T06:31:27.052Z,35.00
2022-11-22T06:33:57.780Z,31.97
2022-11-22T06:36:29.140Z,28.70
2022-11-22T06:38:58.388Z,30.50
2022-11-22T06:41:28.799Z,30.27
2022-11-22T06:43:57.711Z,30.93
2022-11-22T06:46:27.831Z,30.93
2022-11-22T06:48:56.938Z,31.47
2022-11-22T06:51:30.071Z,30.80
2022-11-22T06:53:59.481Z,33.27
2022-11-22T06:56:30.160Z,30.20
2022-11-22T06:58:59.585Z,36.97
2022-11-22T07:01:29.929Z,35.57
2022-11-22T07:03:59.500Z,30.80
2022-11-22T07:06:32.240Z,37.17
2022-11-22T07:09:01.394Z,33.40
2022-11-22T07:11:31.734Z,36.03
2022-11-22T07:14:07.099Z,31.93
2022-11-22T07:16:37.551Z,31.23
2022-11-22T07:19:07.014Z,39.13
2022-11-22T07:21:38.338Z,34.63
2022-11-22T07:24:08.818Z,34.73
2022-11-22T07:26:37.883Z,32.63
2022-11-22T07:29:06.689Z,34.87
2022-11-22T07:31:36.549Z,36.63
2022-11-22T07:34:05.832Z,31.10
2022-11-22T07:36:34.831Z,29.73
2022-11-22T07:39:06.066Z,32.63
2022-11-22T07:41:34.822Z,33.00
2022-11-22T07:44:03.933Z,31.23
2022-11-22T07:46:33.497Z,30.83
2022-11-22T07:49:03.192Z,31.20
2022-11-22T07:51:32.504Z,32.80
2022-11-22T07:54:01.580Z,29.83
2022-11-22T07:56:31.616Z,30.20
2022-11-22T07:59:00.544Z,33.37
2022-11-22T08:01:29.148Z,35.40
2022-11-22T08:03:58.736Z,32.73
2022-11-22T08:06:27.929Z,27.87
2022-11-22T08:09:01.837Z,30.47
2022-11-22T08:11:32.748Z,32.13
2022-11-22T08:14:01.540Z,28.23
2022-11-22T08:16:30.676Z,33.53
2022-11-22T08:19:00.127Z,32.33
2022-11-22T08:21:28.913Z,26.30
2022-11-22T08:24:00.324Z,29.03
2022-11-22T08:26:29.750Z,23.87
2022-11-22T08:29:00.007Z,30.20
2022-11-22T08:31:29.459Z,28.30
2022-11-22T08:33:58.610Z,30.77
2022-11-22T08:36:28.400Z,28.87
2022-11-22T08:38:57.677Z,26.60
2022-11-22T08:41:26.903Z,27.67
2022-11-22T08:43:55.842Z,25.60
2022-11-22T08:46:26.117Z,27.67
2022-11-22T08:48:55.186Z,28.13
2022-11-22T08:51:23.718Z,25.00
2022-11-22T08:53:52.527Z,27.17
2022-11-22T08:56:21.441Z,26.63
2022-11-22T08:58:50.467Z,25.77
2022-11-22T09:01:21.489Z,29.07
2022-11-22T09:03:51.743Z,26.93
2022-11-22T09:11:58.342Z,30.50
2022-11-22T09:14:27.316Z,29.00
2022-11-22T09:16:56.355Z,26.20
2022-11-22T09:19:26.547Z,26.93
2022-11-22T09:21:55.286Z,28.80
2022-11-22T09:24:23.640Z,25.77
2022-11-22T09:26:52.214Z,25.33
2022-11-22T09:29:20.899Z,27.37
2022-11-22T09:31:49.817Z,25.60
2022-11-22T09:34:18.681Z,29.43
2022-11-22T09:36:48.991Z,24.33
2022-11-22T09:39:18.243Z,26.57
2022-11-22T09:42:18.758Z,24.37
2022-11-22T09:45:09.224Z,27.70
2022-11-22T09:47:43.401Z,24.80
2022-11-22T09:50:18.556Z,26.80
2022-11-22T09:52:52.998Z,26.33
2022-11-22T09:55:24.910Z,24.97
2022-11-22T09:58:02.552Z,24.80
2022-11-22T10:00:31.480Z,27.30
2022-11-22T10:03:05.795Z,28.97
2022-11-22T10:05:40.415Z,29.07
2022-11-22T10:08:19.135Z,26.57
2022-11-22T10:10:47.979Z,27.10
2022-11-22T10:13:20.699Z,26.67
2022-11-22T10:15:56.467Z,26.07
2022-11-22T10:18:32.171Z,28.47
2022-11-22T10:21:01.851Z,25.83
2022-11-22T10:23:32.926Z,26.97
2022-11-22T10:26:04.004Z,25.60
2022-11-22T10:28:36.462Z,28.30
2022-11-22T10:31:12.398Z,27.53
2022-11-22T10:33:44.949Z,24.30
2022-11-22T10:36:26.073Z,25.63
2022-11-22T10:39:19.952Z,27.33
2022-11-22T10:42:13.178Z,27.23
2022-11-22T10:44:50.073Z,25.03
2022-11-22T10:47:34.120Z,27.90
2022-11-22T10:50:07.778Z,25.03
2022-11-22T10:52:40.117Z,23.57
2022-11-22T10:55:22.231Z,28.27
2022-11-22T10:57:58.963Z,27.00
2022-11-22T11:00:28.007Z,29.53
2022-11-22T11:03:25.897Z,28.13
2022-11-22T11:11:41.509Z,30.57
2022-11-22T11:14:16.735Z,28.10
2022-11-22T11:16:46.623Z,30.23
2022-11-22T11:19:20.440Z,38.53
2022-11-22T11:21:57.312Z,32.53
2022-11-22T11:24:25.852Z,35.97
2022-11-22T11:26:57.308Z,33.33
2022-11-22T11:29:40.038Z,34.43
2022-11-22T11:32:11.450Z,31.50
2022-11-22T11:34:42.763Z,36.17
2022-11-22T11:37:20.526Z,37.90
2022-11-22T11:39:49.307Z,39.77
2022-11-22T11:42:30.456Z,41.23
2022-11-22T11:45:21.287Z,36.70
2022-11-22T11:47:50.049Z,38.00
2022-11-22T11:50:24.348Z,42.13
2022-11-22T11:52:55.884Z,42.17
2022-11-22T11:55:24.879Z,41.33
2022-11-22T11:57:55.482Z,38.20
2022-11-22T12:00:27.801Z,46.77
2022-11-22T12:03:02.023Z,44.00
2022-11-22T12:05:32.266Z,39.87
2022-11-22T12:08:02.534Z,45.53
2022-11-22T12:10:40.069Z,42.07
2022-11-22T12:13:16.352Z,51.93
2022-11-22T12:15:52.782Z,43.50
2022-11-22T12:18:31.663Z,49.63
2022-11-22T12:21:07.711Z,45.20
2022-11-22T12:23:44.416Z,46.50
2022-11-22T12:26:16.810Z,47.73
2022-11-22T12:28:47.555Z,46.07
2022-11-22T12:31:25.009Z,51.43
2022-11-22T12:33:56.143Z,48.73
2022-11-22T12:36:32.705Z,46.00
2022-11-22T12:39:04.146Z,44.30
2022-11-22T12:41:34.235Z,51.27
2022-11-22T12:44:06.035Z,46.47
2022-11-22T12:46:40.988Z,49.77
2022-11-22T12:49:17.112Z,50.00
2022-11-22T12:51:48.331Z,46.13
2022-11-22T12:54:20.068Z,48.40
2022-11-22T12:56:53.468Z,48.73
2022-11-22T12:59:30.571Z,51.07
2022-11-22T13:02:05.112Z,42.40
2022-11-22T13:04:40.639Z,46.80
2022-11-22T13:07:13.517Z,49.10
2022-11-22T13:09:47.235Z,49.50
2022-11-22T13:12:17.516Z,50.50
2022-11-22T13:14:52.590Z,50.07
2022-11-22T13:17:22.288Z,49.17
2022-11-22T13:19:54.147Z,50.77
2022-11-22T13:22:29.326Z,51.03
2022-11-22T13:25:20.001Z,50.20
2022-11-22T13:27:51.128Z,47.23
2022-11-22T13:30:23.371Z,52.13
2022-11-22T13:32:54.226Z,48.80
2022-11-22T13:35:31.809Z,46.37
2022-11-22T13:38:03.787Z,50.30
2022-11-22T13:40:36.193Z,51.40
2022-11-22T13:43:34.050Z,50.50
2022-11-22T13:46:05.170Z,44.07
2022-11-22T13:49:08.816Z,48.17
2022-11-22T13:51:57.171Z,51.80
2022-11-22T13:54:44.234Z,58.03
2022-11-22T13:57:35.679Z,51.53
2022-11-22T14:00:44.488Z,51.13
2022-11-22T14:03:25.839Z,50.70
2022-11-22T14:05:56.524Z,51.53
2022-11-22T14:08:32.140Z,50.87
2022-11-22T14:11:28.815Z,53.20
2022-11-22T14:14:03.540Z,59.87
2022-11-22T14:16:42.702Z,50.97
2022-11-22T14:19:36.121Z,56.67
2022-11-22T14:22:19.384Z,51.07
2022-11-22T14:25:15.979Z,55.20
2022-11-22T14:27:50.388Z,51.97
2022-11-22T14:30:20.839Z,50.57
2022-11-22T14:32:56.504Z,53.40
2022-11-22T14:35:34.245Z,58.10
2022-11-22T14:38:06.189Z,51.43
2022-11-22T14:40:37.406Z,52.13
2022-11-22T14:43:18.437Z,53.90
2022-11-22T14:45:51.405Z,53.37
2022-11-22T14:48:21.817Z,51.67
2022-11-22T14:50:58.896Z,58.00
2022-11-22T14:53:35.656Z,49.87
2022-11-22T14:56:14.079Z,60.33
2022-11-22T14:58:47.795Z,59.57
2022-11-22T15:01:58.589Z,58.00
2022-11-22T15:09:16.598Z,53.57
2022-11-22T15:09:20.086Z,61.53
2022-11-22T15:11:30.179Z,60.10
2022-11-22T15:14:23.386Z,55.87
2022-11-22T15:57:33.686Z,66.73
2022-11-22T16:00:10.185Z,70.77
2022-11-22T16:02:41.716Z,68.33
2022-11-22T16:06:09.440Z,65.57
2022-11-22T16:08:02.405Z,66.17
2022-11-22T16:10:37.749Z,67.07
2022-11-22T16:13:15.168Z,59.90
2022-11-22T16:15:45.275Z,61.93
2022-11-22T16:18:16.808Z,61.00
2022-11-22T16:21:00.268Z,63.23
2022-11-22T16:23:30.056Z,67.20
2022-11-22T16:26:01.336Z,61.50
2022-11-22T16:28:35.366Z,67.73
2022-11-22T16:31:08.164Z,61.90
2022-11-22T16:33:37.297Z,65.27
2022-11-22T16:36:10.683Z,66.47
2022-11-22T16:38:39.544Z,58.87
2022-11-22T16:41:14.492Z,62.90
2022-11-22T16:43:43.288Z,69.47
2022-11-22T16:46:15.114Z,67.20
2022-11-22T16:48:44.341Z,65.07
2022-11-22T16:51:15.468Z,63.23
2022-11-22T16:53:46.415Z,70.77
2022-11-22T16:56:19.835Z,69.30
2022-11-22T16:58:49.824Z,65.67
2022-11-22T17:01:21.907Z,62.40
2022-11-22T17:03:52.463Z,58.10
2022-11-22T17:06:23.175Z,64.47
2022-11-22T17:08:54.639Z,64.20
2022-11-22T17:11:26.021Z,61.10
2022-11-22T17:13:55.465Z,61.03
2022-11-22T17:16:25.558Z,64.17
2022-11-22T17:18:54.673Z,69.10
2022-11-22T17:21:29.365Z,62.63
2022-11-22T17:24:03.330Z,60.73
2022-11-22T17:26:32.739Z,61.87
2022-11-22T17:29:01.821Z,62.53
2022-11-22T17:31:32.265Z,68.13
2022-11-22T17:34:01.574Z,58.70
2022-11-22T17:36:31.488Z,65.93
2022-11-22T17:39:01.418Z,58.43
2022-11-22T17:41:30.579Z,64.60
2022-11-22T17:43:59.820Z,74.63
2022-11-22T17:46:30.096Z,61.37
2022-11-22T17:49:01.947Z,73.17
2022-11-22T17:51:31.637Z,71.27
2022-11-22T17:54:01.161Z,61.97
2022-11-22T17:56:30.683Z,62.17
2022-11-22T17:58:59.529Z,64.77
2022-11-22T18:01:28.211Z,66.80
2022-11-22T18:03:57.299Z,65.60
2022-11-22T18:06:29.342Z,61.33
2022-11-22T18:08:58.328Z,67.53
2022-11-22T18:11:27.190Z,66.43
2022-11-22T18:13:56.098Z,59.23
2022-11-22T18:16:28.575Z,64.27
2022-11-22T18:18:58.529Z,67.97
2022-11-22T18:21:30.553Z,58.20
2022-11-22T18:24:00.052Z,63.50
2022-11-22T18:26:39.332Z,63.57
2022-11-22T18:31:58.360Z,56.50
2022-11-22T18:34:27.811Z,60.03
2022-11-22T18:37:03.593Z,65.80
2022-11-22T18:39:35.056Z,66.00
2022-11-22T18:42:04.731Z,61.53
2022-11-22T18:44:33.822Z,59.57
2022-11-22T18:47:02.536Z,53.23
2022-11-22T18:49:32.120Z,62.60
2022-11-22T18:52:02.966Z,62.97
2022-11-22T18:54:32.077Z,60.57
2022-11-22T18:57:01.253Z,67.07
2022-11-22T18:59:30.179Z,61.27
2022-11-22T19:01:58.923Z,58.90
2022-11-22T19:04:28.040Z,58.37
2022-11-22T19:06:56.881Z,65.60
2022-11-22T19:09:26.858Z,63.37
2022-11-22T19:11:58.679Z,63.43
2022-11-22T19:14:29.861Z,67.23
2022-11-22T19:16:58.869Z,65.30
2022-11-22T19:19:31.842Z,65.40
2022-11-22T19:22:00.690Z,76.20
2022-11-22T19:24:31.531Z,63.93
2022-11-22T19:27:00.779Z,64.47
2022-11-22T19:29:29.992Z,81.57
2022-11-22T19:31:59.101Z,88.17
2022-11-22T19:34:27.703Z,73.83
2022-11-22T19:36:56.484Z,75.07
2022-11-22T19:39:27.038Z,76.87
2022-11-22T19:41:57.283Z,73.23
2022-11-22T19:44:27.137Z,72.00
2022-11-22T19:46:55.950Z,76.53
2022-11-22T19:49:24.699Z,79.70
2022-11-22T19:51:54.022Z,87.60
2022-11-22T19:54:23.043Z,73.57
2022-11-22T19:56:51.879Z,90.03
2022-11-22T19:59:22.340Z,90.97
2022-11-22T20:01:51.624Z,82.07
2022-11-22T20:04:21.103Z,86.97
2022-11-22T20:06:50.525Z,91.20
2022-11-22T20:09:19.488Z,87.37
2022-11-22T20:11:48.382Z,82.97
2022-11-22T20:14:17.242Z,78.10
2022-11-22T20:16:47.597Z,78.63
2022-11-22T20:19:16.467Z,84.60
2022-11-22T20:21:46.106Z,83.60
2022-11-22T20:24:14.904Z,83.67
2022-11-22T20:26:44.596Z,93.77
2022-11-22T20:29:15.376Z,84.00
2022-11-22T20:31:44.216Z,97.67
2022-11-22T20:34:15.784Z,86.63
2022-11-22T20:36:44.475Z,95.50
2022-11-22T20:39:13.805Z,88.60
2022-11-22T20:41:43.318Z,85.47
2022-11-22T20:44:14.330Z,92.03
2022-11-22T20:46:43.158Z,87.17
2022-11-22T20:49:13.844Z,86.10
2022-11-22T20:51:43.311Z,94.97
2022-11-22T20:54:13.802Z,86.07
2022-11-22T20:56:42.418Z,96.93
2022-11-22T20:59:11.334Z,89.87
2022-11-22T21:01:40.458Z,94.30
2022-11-22T21:04:10.211Z,89.50
2022-11-22T21:06:40.329Z,106.67
2022-11-22T21:09:09.316Z,99.47
2022-11-22T21:11:38.936Z,93.47
2022-11-22T21:14:08.462Z,100.17
2022-11-22T21:16:37.608Z,94.53
2022-11-22T21:19:06.363Z,92.07
2022-11-22T21:21:36.114Z,104.57
2022-11-22T21:24:07.984Z,99.03
2022-11-22T21:26:36.944Z,99.03
2022-11-22T21:29:15.966Z,86.93
2022-11-22T21:31:45.168Z,92.07
2022-11-22T21:34:14.257Z,92.47
2022-11-22T21:36:42.821Z,90.57
2022-11-22T21:39:13.060Z,91.47
2022-11-22T21:41:42.024Z,91.03
2022-11-22T21:44:11.980Z,104.47
2022-11-22T21:46:40.662Z,81.30
2022-11-22T21:49:09.768Z,93.67
2022-11-22T21:51:38.580Z,87.73
2022-11-22T21:54:07.587Z,87.80
2022-11-22T21:56:37.599Z,93.33
2022-11-22T21:59:06.595Z,86.27
2022-11-22T22:01:35.495Z,86.77
2022-11-22T22:04:04.558Z,88.37
2022-11-22T22:06:33.445Z,94.63
2022-11-22T22:09:02.885Z,83.23
2022-11-22T22:11:31.423Z,94.90
2022-11-22T22:14:01.424Z,85.33
2022-11-22T22:16:30.085Z,86.13
2022-11-22T22:19:01.918Z,80.30
2022-11-22T22:21:33.540Z,86.30
2022-11-22T22:24:03.938Z,80.50
2022-11-22T22:26:33.524Z,85.13
2022-11-22T22:29:03.557Z,82.67
2022-11-22T22:31:33.568Z,85.30
2022-11-22T22:34:02.266Z,83.93
2022-11-22T22:36:30.989Z,76.50
2022-11-22T22:39:00.007Z,81.20
2022-11-22T22:41:28.482Z,83.20
2022-11-22T22:43:56.965Z,86.17
2022-11-22T22:46:27.195Z,88.33
2022-11-22T22:48:56.274Z,79.37
2022-11-22T22:51:32.256Z,83.33
2022-11-22T22:54:02.632Z,74.37
2022-11-22T22:56:32.470Z,79.93
2022-11-22T22:59:01.672Z,84.67
2022-11-22T23:01:32.741Z,73.37
2022-11-22T23:04:02.590Z,89.97
2022-11-22T23:06:32.808Z,69.93
2022-11-22T23:09:01.767Z,74.63
2022-11-22T23:11:50.072Z,75.13
2022-11-22T23:14:20.905Z,75.33
2022-11-22T23:16:57.132Z,78.33
2022-11-22T23:19:27.352Z,67.97
2022-11-22T23:21:56.377Z,71.40
2022-11-22T23:24:25.255Z,76.27
2022-11-22T23:26:54.678Z,74.17
2022-11-22T23:29:24.080Z,66.20
2022-11-22T23:31:54.539Z,77.23
2022-11-22T23:34:23.473Z,64.03
2022-11-22T23:36:52.491Z,63.77
2022-11-22T23:39:21.428Z,61.17
2022-11-22T23:41:50.625Z,67.80
2022-11-22T23:44:19.454Z,67.97
2022-11-22T23:46:48.146Z,64.30
2022-11-22T23:49:18.428Z,64.23
2022-11-22T23:51:50.505Z,59.70
2022-11-22T23:54:19.522Z,57.47
2022-11-22T23:56:48.201Z,58.43
2022-11-22T23:59:17.907Z,61.23
